Pagina principale
METAR-TAF:

METAR-TAF

Aeroporti :

Ingolstadt, Germania

latitudine: 48-43N, longitudine: 011-32E, altezza: 367 m

Osservazione

Il bollettino è stato emesso 35 minuti fa, alle 15:20 UTC
Vento 5 kt da nord/nord-est
Temperature 19°C
Umidità 43%
Pressione 1017 hPa
Visibilità 10 km o più
Poco nuvoloso ad un'altezza di 5000 ft
Nubi sparse ad un'altezza di 8000 ft

METAR: ETSI 131520Z 03005KT 9999 FEW050 SCT080 19/06 Q1017 BLU+

Ora: 17:55 (15:55 UTC)

Previsione

Il bollettino è stato emesso 2 ore e 48 minuti fa, alle 13:07 UTC
Previsione valida dal 13 alle 14 UTC al 13 alle 23 UTC
Vento 7 kt da sud-ovest
Visibilità 10 km o più
Nubi sparse ad un'altezza di 4000 ft
Evoluzione graduale
dal 13 alle 17 UTC al 13 alle 19 UTC
Vento 5 kt da est/sud-est
Visibilità 10 km o più
Nuvoloso ad un'altezza di 25000 ft

TAF: ETSI 131307Z 1314/1323 23007KT 9999 NSW SCT040 BECMG 1317/1319 12005KT 9999 NSW BKN250

Osservazioni e previsioni meteorologiche di più di 4000 aeroporti (messaggi METAR e TAF).

Le stazioni disponibili sono rappresentate dai dischi gialli e rossi sulla carta.

Puntare il mouse per vedere il nome della stazione.

Clicca sopra per visualizzare le osservazioni e previsioni meteorologiche.

Per cambiare la mappa : fare clic sui pulsanti verdi con una croce nera per ingrandire, il pulsante verde con un trattino per diminuire, o sulla freccia verde per le mappe adiacenti.


METAR-TAF: